Time;durP1;ratioP1;P1;durP2;ratioP2;P2;SDS_P1;SDS_P2;PMS_P1;PMS_P2;Temp;Humidity;BMP_temperature;BMP_pressure;BME280_temperature;BME280_humidity;BME280_pressure;Samples;Min_cycle;Max_cycle;Signal;HPM_P1;HPM_P2
2022/03/15 00:01:07;;;;;;;11.15;10.15;;;;;;;5.07;69.22;99741.84;4107516;28;20206;-51
2022/03/15 00:03:09;;;;;;;10.65;9.80;;;;;;;5.03;69.24;99732.44;4122326;28;20236;-48
2022/03/15 00:05:12;;;;;;;13.45;10.25;;;;;;;4.99;69.31;99741.94;4123855;28;20205;-50
2022/03/15 00:07:15;;;;;;;11.88;8.60;;;;;;;4.97;69.84;99743.16;4123186;28;20206;-50
2022/03/15 00:09:18;;;;;;;12.15;11.02;;;;;;;4.92;69.77;99746.44;4108966;28;20229;-55
2022/03/15 00:11:22;;;;;;;11.95;9.40;;;;;;;4.92;69.22;99735.56;4097379;28;20207;-51
2022/03/15 00:13:28;;;;;;;11.43;10.23;;;;;;;4.85;70.16;99750.91;4121699;28;20232;-49
2022/03/15 00:15:34;;;;;;;10.73;9.63;;;;;;;4.84;70.06;99741.09;4102127;28;20257;-51
2022/03/15 00:17:39;;;;;;;11.82;9.65;;;;;;;4.85;70.16;99740.06;4123036;28;20206;-47
2022/03/15 00:19:41;;;;;;;11.50;10.40;;;;;;;4.85;70.09;99745.47;4108523;28;20681;-50
2022/03/15 00:21:43;;;;;;;11.43;10.25;;;;;;;4.85;70.45;99742.75;4120974;28;20238;-50
2022/03/15 00:23:44;;;;;;;10.77;9.77;;;;;;;4.87;70.23;99738.00;4107180;28;20318;-52
2022/03/15 00:25:46;;;;;;;12.50;8.13;;;;;;;4.88;70.33;99736.97;4107821;28;20282;-49
2022/03/15 00:27:51;;;;;;;11.35;8.35;;;;;;;4.87;70.52;99734.47;4107947;28;20214;-49
2022/03/15 00:29:54;;;;;;;9.40;8.43;;;;;;;4.80;70.80;99725.38;4123852;28;20214;-50
2022/03/15 00:31:58;;;;;;;9.73;8.73;;;;;;;4.90;70.42;99725.94;4093232;28;20250;-50
2022/03/15 00:34:00;;;;;;;7.60;6.90;;;;;;;4.90;70.42;99737.63;4137821;28;20941;-49
2022/03/15 00:36:02;;;;;;;7.85;6.97;;;;;;;4.88;70.46;99723.41;4111092;28;20333;-51
2022/03/15 00:38:03;;;;;;;8.88;7.25;;;;;;;4.85;70.41;99715.66;4107465;28;20226;-50
2022/03/15 00:40:07;;;;;;;8.20;7.40;;;;;;;4.86;70.48;99714.63;4092923;28;20322;-49
2022/03/15 00:42:09;;;;;;;7.88;7.13;;;;;;;4.87;70.28;99721.72;4107096;28;20238;-49
2022/03/15 00:44:11;;;;;;;8.65;7.50;;;;;;;4.85;70.13;99723.78;4108979;28;21010;-49
2022/03/15 00:46:13;;;;;;;8.75;6.70;;;;;;;4.87;69.66;99726.31;4106068;28;20223;-51
2022/03/15 00:48:14;;;;;;;8.40;6.85;;;;;;;4.88;69.75;99734.25;4107759;28;20211;-52
2022/03/15 00:50:17;;;;;;;8.55;6.70;;;;;;;4.88;69.94;99722.56;4119373;28;20230;-51
2022/03/15 00:52:21;;;;;;;8.07;7.30;;;;;;;4.89;69.76;99730.53;4119046;28;20202;-51
2022/03/15 00:54:23;;;;;;;6.68;5.63;;;;;;;4.91;69.95;99723.06;4108247;28;20270;-50
2022/03/15 00:56:24;;;;;;;8.23;6.68;;;;;;;4.91;69.97;99723.06;4102743;28;20211;-49
2022/03/15 00:58:26;;;;;;;9.13;6.97;;;;;;;4.90;69.69;99715.94;4089352;28;20329;-52
2022/03/15 01:00:30;;;;;;;6.65;6.07;;;;;;;4.90;69.48;99721.38;4108087;28;20336;-49
2022/03/15 01:02:32;;;;;;;6.35;5.53;;;;;;;4.90;69.58;99721.38;4105305;28;20226;-50
2022/03/15 01:04:34;;;;;;;7.75;6.55;;;;;;;4.91;70.01;99723.06;4137655;28;20209;-49
2022/03/15 01:06:37;;;;;;;9.98;6.22;;;;;;;4.91;69.95;99712.19;4138551;28;20213;-50
2022/03/15 01:08:39;;;;;;;12.40;8.57;;;;;;;4.90;69.96;99709.66;4135234;28;20213;-49
2022/03/15 01:10:41;;;;;;;9.23;7.22;;;;;;;4.83;71.07;99709.56;4105989;28;22595;-49
2022/03/15 01:12:43;;;;;;;8.50;7.72;;;;;;;4.80;70.99;99715.34;4118312;28;20202;-49
2022/03/15 01:14:44;;;;;;;7.80;6.93;;;;;;;4.81;71.01;99705.38;4105631;28;20588;-49
2022/03/15 01:16:46;;;;;;;11.65;8.27;;;;;;;4.80;70.97;99706.41;4102992;28;20214;-48
2022/03/15 01:18:48;;;;;;;7.88;6.97;;;;;;;4.76;71.90;99708.63;4109285;28;20234;-51
2022/03/15 01:20:51;;;;;;;13.45;9.15;;;;;;;4.72;71.05;99707.31;4118789;28;20883;-49
2022/03/15 01:22:52;;;;;;;11.02;9.52;;;;;;;4.69;71.03;99701.41;4107215;28;20261;-48
2022/03/15 01:24:54;;;;;;;9.35;8.52;;;;;;;4.67;71.53;99704.28;4136507;28;20619;-50
2022/03/15 01:26:57;;;;;;;10.20;8.35;;;;;;;4.58;71.64;99697.28;4108359;28;20218;-52
2022/03/15 01:28:58;;;;;;;7.65;6.93;;;;;;;4.59;71.85;99693.53;4106020;28;20766;-53
2022/03/15 01:31:00;;;;;;;7.68;6.97;;;;;;;4.53;72.03;99690.72;4094756;28;20208;-49
2022/03/15 01:33:02;;;;;;;7.78;7.15;;;;;;;4.57;71.92;99684.75;4108393;28;20319;-49
2022/03/15 01:35:04;;;;;;;7.72;7.13;;;;;;;4.58;71.72;99681.00;4138504;28;20243;-49
2022/03/15 01:37:06;;;;;;;8.95;6.72;;;;;;;4.62;71.88;99674.22;4106002;28;20686;-50
2022/03/15 01:39:08;;;;;;;12.18;6.50;;;;;;;4.59;71.98;99669.13;4107343;28;20215;-50
2022/03/15 01:41:10;;;;;;;8.60;7.35;;;;;;;4.61;71.72;99672.50;4103568;28;21002;-50
2022/03/15 01:43:12;;;;;;;6.53;5.93;;;;;;;4.65;71.46;99679.25;4105602;28;20257;-52
2022/03/15 01:45:14;;;;;;;8.35;5.60;;;;;;;4.66;71.09;99670.09;4117778;28;20203;-52
2022/03/15 01:47:17;;;;;;;7.57;6.38;;;;;;;4.73;71.13;99679.16;4106794;28;20218;-53
2022/03/15 01:49:19;;;;;;;6.53;5.93;;;;;;;4.80;70.98;99671.16;4105612;28;20241;-49
2022/03/15 01:51:21;;;;;;;6.78;6.07;;;;;;;4.80;70.70;99676.56;4133192;28;20213;-49
2022/03/15 01:53:23;;;;;;;6.85;6.13;;;;;;;4.82;70.81;99669.94;4096586;28;20640;-49
2022/03/15 01:55:24;;;;;;;9.23;6.32;;;;;;;4.81;70.96;99670.13;4105750;28;20218;-52
2022/03/15 01:57:31;;;;;;;6.93;6.22;;;;;;;4.79;70.99;99669.47;4090295;28;20660;-49
2022/03/15 01:59:32;;;;;;;6.65;5.95;;;;;;;4.76;70.50;99665.25;4100324;28;20230;-51
2022/03/15 02:01:34;;;;;;;7.60;6.90;;;;;;;4.76;70.38;99673.38;4087620;28;20207;-50
2022/03/15 02:03:36;;;;;;;6.90;6.00;;;;;;;4.75;70.46;99669.00;4100466;28;20235;-52
2022/03/15 02:05:38;;;;;;;7.63;5.63;;;;;;;4.76;70.64;99665.25;4120816;28;20194;-51
2022/03/15 02:07:41;;;;;;;8.05;5.45;;;;;;;4.74;70.60;99664.56;4136043;28;20206;-50
2022/03/15 02:09:43;;;;;;;7.30;5.78;;;;;;;4.85;70.75;99674.13;4106623;28;20243;-50
2022/03/15 02:11:45;;;;;;;5.15;4.63;;;;;;;4.73;70.88;99681.88;4109169;28;20210;-50
2022/03/15 02:13:47;;;;;;;5.53;4.90;;;;;;;4.73;70.75;99681.88;4120800;28;20244;-49
2022/03/15 02:15:48;;;;;;;9.35;5.28;;;;;;;4.74;70.40;99672.72;4123748;28;20218;-50
2022/03/15 02:17:50;;;;;;;5.85;5.18;;;;;;;4.76;70.68;99661.69;4135129;28;20237;-48
2022/03/15 02:19:52;;;;;;;6.80;6.07;;;;;;;4.74;70.74;99670.00;4137151;28;20237;-50
2022/03/15 02:21:57;;;;;;;6.93;5.55;;;;;;;4.78;70.89;99663.19;4123800;28;21236;-51
2022/03/15 02:23:59;;;;;;;5.47;4.97;;;;;;;4.69;71.66;99650.75;4109662;28;20245;-51
2022/03/15 02:26:00;;;;;;;6.20;5.40;;;;;;;4.66;72.05;99651.09;4119588;28;20621;-49
2022/03/15 02:28:02;;;;;;;7.13;6.43;;;;;;;4.78;71.46;99657.75;4103255;28;20207;-49
2022/03/15 02:30:06;;;;;;;5.80;5.07;;;;;;;4.71;71.73;99645.97;4121223;28;20754;-49
2022/03/15 02:32:08;;;;;;;7.05;6.38;;;;;;;4.70;71.58;99655.16;4122847;28;20920;-49
2022/03/15 02:34:10;;;;;;;8.18;7.10;;;;;;;4.70;71.66;99638.88;4104865;28;20632;-49
2022/03/15 02:36:11;;;;;;;7.32;6.63;;;;;;;4.50;72.77;99632.31;4107778;28;20214;-50
2022/03/15 02:38:13;;;;;;;10.55;6.25;;;;;;;4.51;72.78;99634.00;4103704;28;20234;-50
2022/03/15 02:40:15;;;;;;;7.30;6.60;;;;;;;4.68;72.33;99645.50;4133316;28;20228;-50
2022/03/15 02:42:17;;;;;;;6.88;6.38;;;;;;;4.59;72.18;99644.75;4106326;28;20971;-51
2022/03/15 02:44:19;;;;;;;7.70;5.90;;;;;;;4.55;72.54;99646.16;4104151;28;20267;-49
2022/03/15 02:46:21;;;;;;;6.18;5.65;;;;;;;4.56;72.06;99642.41;4104293;28;20230;-49
2022/03/15 02:48:23;;;;;;;7.03;6.22;;;;;;;4.60;72.36;99635.59;4118613;28;20669;-51
2022/03/15 02:50:25;;;;;;;6.82;4.93;;;;;;;4.63;72.28;99637.94;4101985;28;20230;-53
2022/03/15 02:52:29;;;;;;;5.47;5.07;;;;;;;4.65;71.84;99640.44;4106616;28;20206;-50
2022/03/15 02:54:30;;;;;;;6.22;5.30;;;;;;;4.69;71.31;99637.19;4088334;28;20707;-49
2022/03/15 02:56:34;;;;;;;6.40;4.78;;;;;;;4.70;71.16;99633.47;4088552;28;20743;-52
2022/03/15 02:58:39;;;;;;;5.47;5.05;;;;;;;4.69;71.20;99626.38;4108410;28;20210;-50
2022/03/15 03:00:41;;;;;;;6.28;5.68;;;;;;;4.77;71.58;99631.69;4101038;28;20254;-49
2022/03/15 03:02:43;;;;;;;5.75;5.25;;;;;;;4.71;72.11;99635.13;4104750;28;20222;-50
2022/03/15 03:04:45;;;;;;;7.43;5.38;;;;;;;4.68;71.98;99629.25;4107815;28;20261;-48
2022/03/15 03:06:47;;;;;;;5.15;4.63;;;;;;;4.73;71.84;99633.06;4103288;28;20238;-50
2022/03/15 03:08:49;;;;;;;8.60;5.32;;;;;;;4.75;71.63;99631.03;4105759;28;20234;-50
2022/03/15 03:10:51;;;;;;;4.68;4.28;;;;;;;4.75;71.63;99630.19;4110599;28;20338;-51
2022/03/15 03:12:54;;;;;;;6.40;4.90;;;;;;;4.75;71.20;99625.63;4108905;28;20801;-51
2022/03/15 03:14:55;;;;;;;5.22;4.82;;;;;;;4.75;71.58;99624.75;4109559;28;20281;-50
2022/03/15 03:16:57;;;;;;;5.63;5.13;;;;;;;4.73;71.50;99627.66;4105994;28;20215;-50
2022/03/15 03:18:59;;;;;;;5.15;4.75;;;;;;;4.76;71.84;99619.16;4123868;28;20240;-49
2022/03/15 03:21:02;;;;;;;12.05;5.60;;;;;;;4.71;71.67;99616.16;4105528;28;20675;-51
2022/03/15 03:23:03;;;;;;;9.75;4.47;;;;;;;4.73;71.81;99627.66;4107624;28;20638;-49
2022/03/15 03:25:06;;;;;;;5.63;4.88;;;;;;;4.76;71.75;99612.88;4136896;28;20674;-48
2022/03/15 03:27:13;;;;;;;5.63;5.13;;;;;;;4.66;72.20;99607.75;4104842;28;20672;-51
2022/03/15 03:29:16;;;;;;;5.38;4.90;;;;;;;4.62;72.49;99614.56;4106974;28;20301;-50
2022/03/15 03:31:18;;;;;;;10.43;5.03;;;;;;;4.60;72.59;99615.78;4123432;28;20213;-48
2022/03/15 03:33:20;;;;;;;7.72;5.20;;;;;;;4.63;72.09;99616.25;4109817;28;20218;-51
2022/03/15 03:35:22;;;;;;;7.32;4.85;;;;;;;4.64;71.75;99620.66;4103988;28;20262;-52
2022/03/15 03:37:25;;;;;;;6.20;4.68;;;;;;;4.64;71.84;99612.50;4108862;28;20202;-50
2022/03/15 03:39:26;;;;;;;5.35;3.72;;;;;;;4.65;71.62;99616.91;4108224;28;20300;-48
2022/03/15 03:41:29;;;;;;;7.13;4.57;;;;;;;4.68;71.77;99611.09;4110580;28;20206;-52
2022/03/15 03:43:31;;;;;;;5.70;5.07;;;;;;;4.64;72.15;99617.94;4109674;28;20282;-50
2022/03/15 03:45:34;;;;;;;3.90;3.60;;;;;;;4.70;71.61;99617.19;4093726;28;20235;-49
2022/03/15 03:47:36;;;;;;;5.80;4.65;;;;;;;4.66;72.05;99615.88;4107655;28;20230;-50
2022/03/15 03:49:38;;;;;;;4.22;3.60;;;;;;;4.66;71.48;99615.88;4111963;28;20821;-49
2022/03/15 03:51:40;;;;;;;4.93;4.28;;;;;;;4.69;71.90;99615.50;4139502;28;20716;-49
2022/03/15 03:53:42;;;;;;;5.68;4.85;;;;;;;4.65;72.08;99608.78;4115577;28;20203;-48
2022/03/15 03:55:44;;;;;;;5.53;4.82;;;;;;;4.63;72.10;99602.72;4112828;28;20261;-49
2022/03/15 03:57:46;;;;;;;5.43;4.93;;;;;;;4.60;72.16;99600.34;4092128;28;20207;-49
2022/03/15 03:59:47;;;;;;;4.70;4.28;;;;;;;4.61;72.21;99596.59;4110524;28;20293;-49
2022/03/15 04:01:49;;;;;;;5.55;4.55;;;;;;;4.60;72.16;99600.34;4110968;28;20214;-49
2022/03/15 04:03:52;;;;;;;6.93;4.53;;;;;;;4.60;71.92;99594.94;4106149;28;20250;-49
2022/03/15 04:05:54;;;;;;;3.85;3.55;;;;;;;4.61;72.21;99596.59;4124715;28;20249;-48
2022/03/15 04:07:57;;;;;;;5.28;3.90;;;;;;;4.62;71.84;99592.91;4108000;28;20203;-48
2022/03/15 04:09:59;;;;;;;3.35;3.15;;;;;;;4.62;71.79;99590.19;4104460;28;20227;-49
2022/03/15 04:12:03;;;;;;;5.25;4.75;;;;;;;4.61;71.81;99591.19;4120415;28;20713;-49
2022/03/15 04:14:05;;;;;;;8.15;4.07;;;;;;;4.60;72.12;99584.09;4118237;28;20206;-49
2022/03/15 04:16:07;;;;;;;3.95;3.33;;;;;;;4.62;71.85;99587.47;4091378;28;20236;-49
2022/03/15 04:18:09;;;;;;;4.20;3.47;;;;;;;4.62;71.88;99589.31;4106795;28;20219;-48
2022/03/15 04:20:11;;;;;;;3.60;3.05;;;;;;;4.57;72.16;99592.59;4106423;28;20755;-49
2022/03/15 04:22:13;;;;;;;4.57;4.18;;;;;;;4.57;72.17;99594.47;4138409;28;20711;-49
2022/03/15 04:24:16;;;;;;;3.67;3.40;;;;;;;4.58;71.96;99593.44;4137619;28;21084;-49
2022/03/15 04:26:18;;;;;;;4.68;3.90;;;;;;;4.60;72.11;99589.50;4108082;28;22499;-49
2022/03/15 04:28:19;;;;;;;4.93;3.25;;;;;;;4.65;72.12;99586.22;4123688;28;20693;-49
2022/03/15 04:30:21;;;;;;;4.45;4.10;;;;;;;4.63;72.07;99582.88;4106203;28;20257;-48
2022/03/15 04:32:23;;;;;;;4.25;2.88;;;;;;;4.57;72.38;99589.91;4102759;28;21326;-49
2022/03/15 04:34:25;;;;;;;4.07;3.17;;;;;;;4.68;72.07;99575.84;4106386;28;20806;-49
2022/03/15 04:36:27;;;;;;;4.90;3.22;;;;;;;4.57;71.99;99573.63;4137595;28;20645;-49
2022/03/15 04:38:29;;;;;;;4.68;4.13;;;;;;;4.50;72.85;99569.97;4136852;28;20308;-49
2022/03/15 04:40:31;;;;;;;4.13;3.50;;;;;;;4.50;73.00;99566.41;4106344;28;20306;-49
2022/03/15 04:42:34;;;;;;;3.40;3.10;;;;;;;4.51;72.72;99563.53;4103676;28;20606;-49
2022/03/15 04:44:35;;;;;;;3.35;3.05;;;;;;;4.50;72.76;99559.16;4136710;28;20714;-48
2022/03/15 04:46:37;;;;;;;8.93;3.22;;;;;;;4.52;72.16;99562.50;4107421;28;20294;-48
2022/03/15 04:48:39;;;;;;;5.13;4.05;;;;;;;4.58;72.21;99559.03;4118849;28;20214;-49
2022/03/15 04:50:40;;;;;;;4.45;3.58;;;;;;;4.59;72.17;99565.31;4107095;28;20234;-49
2022/03/15 04:52:42;;;;;;;3.45;3.15;;;;;;;4.54;72.50;99556.91;4105138;28;20231;-49
2022/03/15 04:54:45;;;;;;;4.50;4.10;;;;;;;4.54;72.86;99551.47;4107550;28;20326;-49
2022/03/15 04:56:47;;;;;;;3.72;3.40;;;;;;;4.52;72.45;99553.50;4137007;28;20751;-49
2022/03/15 04:58:48;;;;;;;3.95;3.65;;;;;;;4.54;72.55;99548.78;4108444;28;20221;-49
2022/03/15 05:00:50;;;;;;;3.35;3.08;;;;;;;4.55;72.65;99556.72;4105332;28;20265;-49
2022/03/15 05:02:52;;;;;;;3.65;3.35;;;;;;;4.54;72.13;99552.31;4134563;28;20213;-49
2022/03/15 05:04:54;;;;;;;2.88;2.65;;;;;;;4.56;71.98;99555.69;4125606;28;20230;-49
2022/03/15 05:06:56;;;;;;;6.00;2.60;;;;;;;4.60;72.37;99551.56;4104225;28;20214;-48
2022/03/15 05:08:57;;;;;;;3.08;2.80;;;;;;;4.56;72.25;99555.69;4104921;28;20274;-49
2022/03/15 05:11:08;;;;;;;3.30;3.10;;;;;;;4.59;72.10;99555.31;4121730;28;20694;-49
2022/03/15 05:13:10;;;;;;;2.97;2.70;;;;;;;4.61;72.35;99558.66;4104739;28;20214;-50
2022/03/15 05:15:11;;;;;;;3.85;2.97;;;;;;;4.62;71.91;99559.50;4086781;28;20283;-48
2022/03/15 05:17:13;;;;;;;3.13;2.85;;;;;;;4.65;71.93;99554.56;4121326;28;20289;-49
2022/03/15 05:19:16;;;;;;;2.38;2.17;;;;;;;4.66;71.79;99556.25;4122349;28;20210;-49
2022/03/15 05:21:18;;;;;;;2.97;2.78;;;;;;;4.69;72.04;99565.88;4090944;28;20207;-49
2022/03/15 05:23:20;;;;;;;4.18;2.45;;;;;;;4.66;72.05;99569.78;4136111;28;20812;-49
2022/03/15 05:25:25;;;;;;;3.35;2.65;;;;;;;4.67;71.91;99568.75;4134037;28;20705;-49
2022/03/15 05:27:27;;;;;;;4.35;3.17;;;;;;;4.67;71.68;99574.19;4115742;28;20293;-48
2022/03/15 05:29:28;;;;;;;3.10;2.90;;;;;;;4.63;72.30;99564.75;4104668;28;20230;-49
2022/03/15 05:31:31;;;;;;;5.15;3.60;;;;;;;4.62;72.95;99560.38;4102496;28;20214;-49
2022/03/15 05:33:33;;;;;;;5.75;3.20;;;;;;;4.75;72.37;99559.69;4103914;28;20211;-50
2022/03/15 05:35:35;;;;;;;4.70;4.30;;;;;;;4.60;73.28;99556.16;4121601;28;20306;-49
2022/03/15 05:37:37;;;;;;;3.60;3.30;;;;;;;4.58;72.88;99545.50;4136344;28;20232;-49
2022/03/15 05:39:39;;;;;;;3.58;3.10;;;;;;;4.54;72.75;99557.72;4091738;28;20401;-49
2022/03/15 05:41:41;;;;;;;4.53;3.38;;;;;;;4.56;73.02;99550.28;4106406;28;20380;-49
2022/03/15 05:43:42;;;;;;;4.32;3.28;;;;;;;4.64;73.27;99554.75;4103925;28;20210;-49
2022/03/15 05:45:45;;;;;;;3.70;3.40;;;;;;;4.52;73.07;99554.38;4136116;28;20214;-49
2022/03/15 05:47:47;;;;;;;3.40;2.90;;;;;;;4.59;73.12;99549.06;4121064;28;20245;-49
2022/03/15 05:49:48;;;;;;;3.33;2.28;;;;;;;4.58;72.59;99547.34;4088677;28;20281;-49
2022/03/15 05:51:50;;;;;;;3.15;2.85;;;;;;;4.58;72.27;99548.22;4118029;28;20206;-49
2022/03/15 05:53:52;;;;;;;3.30;3.00;;;;;;;4.60;72.38;99556.16;4105179;28;20215;-49
2022/03/15 05:55:54;;;;;;;2.40;2.20;;;;;;;4.72;72.58;99547.34;4102423;28;20326;-49
2022/03/15 05:57:55;;;;;;;2.95;2.65;;;;;;;4.68;72.49;99546.03;4101179;28;20381;-49
2022/03/15 05:59:57;;;;;;;5.03;3.40;;;;;;;4.68;72.57;99553.34;4100346;28;20230;-49
2022/03/15 06:01:59;;;;;;;3.63;2.85;;;;;;;4.60;73.07;99546.13;4118763;28;20206;-48
2022/03/15 06:06:11;;;;;;;3.03;2.83;;;;;;;4.59;73.12;99544.47;4476796;23;20241;-84
2022/03/15 06:11:20;;;;;;;2.33;2.22;;;;;;;4.65;72.89;99535.59;4096088;28;20209;-84
2022/03/15 06:13:22;;;;;;;2.45;2.30;;;;;;;4.66;72.68;99531.84;4104631;28;20215;-83
2022/03/15 06:15:23;;;;;;;5.32;2.67;;;;;;;4.81;72.66;99535.38;4092515;28;20243;-83
2022/03/15 06:17:25;;;;;;;3.22;2.90;;;;;;;4.69;72.88;99534.19;4103078;28;20223;-83
2022/03/15 06:19:26;;;;;;;3.25;3.00;;;;;;;4.68;73.28;99521.63;4102190;28;20672;-83
2022/03/15 06:21:31;;;;;;;4.03;3.15;;;;;;;4.71;73.02;99521.28;4088577;28;20230;-83
2022/03/15 06:23:32;;;;;;;4.03;2.65;;;;;;;4.64;73.31;99530.34;4088253;28;20207;-83
2022/03/15 06:25:34;;;;;;;2.97;2.78;;;;;;;4.64;73.24;99528.47;4105472;28;20227;-84
2022/03/15 06:27:36;;;;;;;5.78;4.18;;;;;;;4.65;72.96;99527.44;4116854;28;20221;-83
2022/03/15 06:29:37;;;;;;;5.22;3.90;;;;;;;4.69;72.92;99531.47;4116631;28;20329;-83
2022/03/15 06:31:39;;;;;;;6.05;5.43;;;;;;;4.72;72.50;99532.94;4103088;28;20199;-83
2022/03/15 06:33:42;;;;;;;5.32;4.82;;;;;;;4.74;72.75;99526.31;4100760;28;20214;-83
2022/03/15 06:35:46;;;;;;;6.07;5.47;;;;;;;4.83;72.52;99525.19;4116399;28;20242;-82
2022/03/15 06:37:50;;;;;;;5.72;4.18;;;;;;;4.97;72.70;99547.88;4089128;28;20219;-82
2022/03/15 06:39:52;;;;;;;4.22;3.92;;;;;;;4.86;72.96;99526.69;4099913;28;20214;-83
2022/03/15 06:41:54;;;;;;;3.80;3.50;;;;;;;4.86;72.18;99527.53;4103049;28;20202;-83
2022/03/15 06:43:56;;;;;;;3.45;3.15;;;;;;;5.11;72.20;99531.59;4101407;28;20685;-83
2022/03/15 06:45:57;;;;;;;3.33;3.05;;;;;;;4.98;72.10;99542.28;4103230;28;20231;-83
2022/03/15 06:47:59;;;;;;;4.05;3.65;;;;;;;4.97;72.38;99540.59;4119073;28;20268;-83
2022/03/15 06:50:01;;;;;;;3.67;3.38;;;;;;;5.04;72.42;99528.78;4086678;28;20698;-83
2022/03/15 06:52:02;;;;;;;4.43;4.03;;;;;;;5.03;72.07;99526.28;4102074;28;20215;-83
2022/03/15 06:54:04;;;;;;;3.97;3.60;;;;;;;5.04;72.48;99522.53;4084465;28;20219;-83
2022/03/15 06:56:06;;;;;;;5.05;4.30;;;;;;;5.06;72.09;99522.38;4100714;28;20254;-83
2022/03/15 06:58:07;;;;;;;4.03;3.70;;;;;;;5.04;72.47;99523.38;4102751;28;20215;-83
2022/03/15 07:00:11;;;;;;;3.47;3.22;;;;;;;5.07;72.28;99532.19;4099832;28;20590;-83
2022/03/15 07:02:13;;;;;;;3.10;2.80;;;;;;;5.08;71.87;99535.53;4102265;28;20210;-84
2022/03/15 07:04:17;;;;;;;5.85;3.03;;;;;;;5.13;72.19;99532.25;4104234;28;20231;-84
2022/03/15 07:06:18;;;;;;;2.83;2.63;;;;;;;5.16;72.12;99531.88;4101548;28;20313;-84
2022/03/15 07:08:20;;;;;;;3.00;2.80;;;;;;;5.23;72.00;99533.59;4098361;28;20277;-84
2022/03/15 07:10:22;;;;;;;2.25;2.05;;;;;;;5.17;72.26;99530.84;4115172;28;20249;-83
2022/03/15 07:12:24;;;;;;;2.17;1.98;;;;;;;5.17;71.90;99522.69;4105558;28;20212;-84
2022/03/15 07:14:25;;;;;;;4.35;3.00;;;;;;;5.16;72.03;99515.59;4092316;28;20239;-83
2022/03/15 07:16:27;;;;;;;2.70;2.20;;;;;;;5.19;71.95;99515.19;4100318;28;20231;-83
2022/03/15 07:18:29;;;;;;;1.92;1.83;;;;;;;5.23;72.08;99521.94;4096304;28;20216;-83
2022/03/15 07:20:30;;;;;;;3.05;2.78;;;;;;;5.24;72.29;99512.75;4119927;28;20217;-82
2022/03/15 07:22:32;;;;;;;2.80;2.60;;;;;;;5.25;72.38;99507.16;4106119;28;20235;-83
2022/03/15 07:24:35;;;;;;;3.47;3.17;;;;;;;5.29;72.05;99510.31;4117855;28;20257;-82
2022/03/15 07:26:36;;;;;;;2.83;2.53;;;;;;;5.30;72.12;99517.41;4117691;28;20237;-83
2022/03/15 07:28:38;;;;;;;2.33;2.13;;;;;;;5.32;71.97;99510.78;4101500;28;20211;-83
2022/03/15 07:30:39;;;;;;;5.05;2.55;;;;;;;5.38;71.77;99509.16;4086028;28;20207;-83
2022/03/15 07:32:40;;;;;;;3.25;2.92;;;;;;;5.37;72.05;99507.47;4095161;28;20207;-83
2022/03/15 07:34:42;;;;;;;11.73;3.03;;;;;;;5.39;71.70;99502.69;4086411;28;20214;-83
2022/03/15 07:36:44;;;;;;;2.88;2.65;;;;;;;5.40;71.68;99505.22;4131506;28;20233;-83
2022/03/15 07:38:45;;;;;;;4.38;3.97;;;;;;;5.39;72.35;99502.69;4091672;28;20212;-83
2022/03/15 07:40:48;;;;;;;5.78;4.18;;;;;;;5.41;72.33;99498.75;4103860;28;20222;-84
2022/03/15 07:42:52;;;;;;;3.97;3.67;;;;;;;5.44;72.34;99498.34;4121046;28;20688;-83
2022/03/15 07:44:54;;;;;;;5.60;4.93;;;;;;;5.47;72.28;99497.13;4090608;28;20241;-82
2022/03/15 07:46:55;;;;;;;6.55;4.90;;;;;;;5.52;71.88;99494.69;4089077;28;20246;-85
2022/03/15 07:48:57;;;;;;;4.75;4.18;;;;;;;5.56;71.80;99501.41;4106935;28;20278;-83
2022/03/15 07:50:59;;;;;;;5.07;4.68;;;;;;;5.60;71.85;99497.25;4120853;28;20210;-84
2022/03/15 07:53:00;;;;;;;4.85;4.13;;;;;;;5.64;71.58;99498.56;4105688;28;20297;-83
2022/03/15 07:55:02;;;;;;;7.22;5.95;;;;;;;5.67;71.97;99503.59;4116913;28;20765;-83
2022/03/15 07:57:04;;;;;;;6.45;5.85;;;;;;;5.69;72.17;99490.69;4123378;28;20221;-84
2022/03/15 07:59:06;;;;;;;22.42;4.05;;;;;;;5.73;71.88;99491.94;4119893;28;20202;-85
2022/03/15 08:01:10;;;;;;;6.03;5.53;;;;;;;5.76;71.89;99489.69;4121124;28;20880;-83
2022/03/15 08:03:11;;;;;;;6.38;5.75;;;;;;;5.79;71.35;99492.06;4115770;28;20318;-85
2022/03/15 08:05:13;;;;;;;5.63;5.13;;;;;;;5.83;71.72;99487.06;4091174;28;20234;-85
2022/03/15 08:07:14;;;;;;;6.63;3.97;;;;;;;5.87;71.80;99482.91;4114442;28;20232;-85
2022/03/15 08:09:16;;;;;;;5.05;4.63;;;;;;;5.86;71.80;99483.94;4105130;28;20211;-84
2022/03/15 08:11:17;;;;;;;4.53;4.13;;;;;;;5.87;72.11;99483.75;4105317;28;20238;-85
2022/03/15 08:13:19;;;;;;;4.55;4.15;;;;;;;5.89;71.80;99486.28;4105013;28;20666;-85
2022/03/15 08:15:21;;;;;;;5.72;4.80;;;;;;;5.91;71.51;99489.63;4106202;28;20211;-84
2022/03/15 08:17:22;;;;;;;4.78;3.63;;;;;;;5.95;71.57;99490.94;4107325;28;20207;-85
2022/03/15 08:19:26;;;;;;;4.50;4.10;;;;;;;5.98;71.63;99490.53;4108164;28;20249;-83
2022/03/15 08:21:29;;;;;;;6.30;3.92;;;;;;;6.06;72.11;99493.94;4123569;28;20244;-85
2022/03/15 08:23:30;;;;;;;4.05;3.22;;;;;;;5.97;72.63;99486.13;4119735;28;20202;-85
2022/03/15 08:25:32;;;;;;;4.63;4.00;;;;;;;6.03;72.32;99483.44;4138349;28;20736;-84
2022/03/15 08:27:34;;;;;;;4.55;3.47;;;;;;;6.10;72.28;99483.53;4106632;28;20301;-84
2022/03/15 08:29:35;;;;;;;4.75;3.33;;;;;;;6.07;73.03;99476.59;4098310;28;20669;-86
2022/03/15 08:31:38;;;;;;;3.65;3.35;;;;;;;6.05;73.18;99472.41;4094989;28;20589;-84
2022/03/15 08:33:39;;;;;;;4.45;4.03;;;;;;;6.03;73.25;99466.34;4108891;28;20224;-85
2022/03/15 08:35:41;;;;;;;3.88;3.58;;;;;;;6.14;73.01;99463.03;4112203;28;20257;-84
2022/03/15 08:37:43;;;;;;;3.50;3.20;;;;;;;6.21;73.09;99458.50;4122712;28;20210;-84
2022/03/15 08:39:45;;;;;;;4.53;3.42;;;;;;;6.20;73.66;99456.81;4108330;28;20207;-85
2022/03/15 08:41:46;;;;;;;3.55;3.20;;;;;;;6.23;73.34;99448.28;4100728;28;20599;-85
2022/03/15 08:43:48;;;;;;;3.45;3.17;;;;;;;6.32;73.41;99455.22;4108915;28;20215;-85
2022/03/15 08:45:50;;;;;;;2.63;2.22;;;;;;;6.34;73.60;99453.13;4106516;28;20253;-84
2022/03/15 08:47:52;;;;;;;3.42;3.13;;;;;;;6.34;72.92;99458.56;4103153;28;20239;-84
2022/03/15 08:49:55;;;;;;;3.60;3.30;;;;;;;6.34;73.29;99450.41;4096465;28;20208;-84
2022/03/15 08:51:56;;;;;;;3.35;3.15;;;;;;;6.36;73.59;99440.22;4123060;28;20261;-84
2022/03/15 08:54:00;;;;;;;3.70;2.33;;;;;;;6.36;73.41;99430.16;4093416;28;20210;-85
2022/03/15 08:56:02;;;;;;;2.95;2.75;;;;;;;6.36;73.56;99423.91;4103356;28;20231;-85
2022/03/15 08:58:03;;;;;;;3.30;2.95;;;;;;;6.36;73.20;99418.47;4105882;28;20275;-84
2022/03/15 09:00:15;;;;;;;4.90;3.45;;;;;;;6.39;73.55;99423.50;4095938;28;20633;-85
2022/03/15 09:02:17;;;;;;;2.90;2.72;;;;;;;6.33;73.79;99421.56;4122642;28;20230;-85
2022/03/15 09:04:19;;;;;;;2.60;2.45;;;;;;;6.28;74.77;99421.34;4137981;28;20278;-84
2022/03/15 09:06:23;;;;;;;3.40;2.35;;;;;;;6.33;73.97;99414.25;4094471;28;20314;-84
2022/03/15 09:08:25;;;;;;;1.83;1.73;;;;;;;6.29;75.02;99409.44;4110634;28;20266;-85
2022/03/15 09:10:28;;;;;;;2.20;2.00;;;;;;;6.29;75.21;99412.16;4114275;28;20217;-85
2022/03/15 09:12:30;;;;;;;1.67;1.58;;;;;;;6.37;75.05;99409.25;4103786;28;20259;-84
2022/03/15 09:14:34;;;;;;;2.35;2.22;;;;;;;6.33;75.17;99419.69;4112398;28;20187;-85
2022/03/15 09:16:35;;;;;;;2.50;2.22;;;;;;;6.30;74.73;99422.81;4121111;28;20235;-84
2022/03/15 09:18:37;;;;;;;2.40;2.20;;;;;;;6.09;75.27;99416.63;4124338;28;20202;-85
2022/03/15 09:20:39;;;;;;;2.30;2.15;;;;;;;6.18;75.18;99402.69;4113003;28;20262;-84
2022/03/15 09:22:41;;;;;;;2.50;2.30;;;;;;;6.07;76.03;99391.53;4107801;28;21027;-84
2022/03/15 09:24:45;;;;;;;2.13;2.03;;;;;;;6.08;76.14;99388.63;4120308;28;20252;-84
2022/03/15 09:26:46;;;;;;;2.58;2.38;;;;;;;6.18;76.33;99382.81;4119460;28;20231;-83
2022/03/15 09:29:09;;;;;;;3.55;3.25;;;;;;;6.11;75.89;99382.81;4117362;28;20218;-85
2022/03/15 09:31:11;;;;;;;6.55;3.10;;;;;;;6.28;75.91;99383.31;4115029;28;20207;-85
2022/03/15 09:33:12;;;;;;;3.38;2.53;;;;;;;6.36;76.03;99380.41;4110967;28;20214;-85
2022/03/15 09:35:14;;;;;;;2.92;2.60;;;;;;;6.42;75.76;99385.88;4113107;28;20213;-84
2022/03/15 09:37:19;;;;;;;2.63;2.42;;;;;;;6.52;75.82;99382.78;4124835;28;20198;-85
2022/03/15 09:39:21;;;;;;;2.78;2.58;;;;;;;6.55;75.93;99385.09;4108392;28;20262;-83
2022/03/15 09:41:25;;;;;;;3.00;2.38;;;;;;;6.57;76.05;99383.00;4123182;28;20702;-83
2022/03/15 09:43:34;;;;;;;2.67;2.47;;;;;;;6.60;75.85;99393.47;4114196;28;20214;-85
2022/03/15 09:45:41;;;;;;;2.47;2.15;;;;;;;6.59;75.86;99380.91;4106134;28;20226;-83
2022/03/15 09:47:45;;;;;;;2.15;1.85;;;;;;;6.63;75.89;99376.75;4106875;28;20219;-85